Time;durP1;ratioP1;P1;durP2;ratioP2;P2;SDS_P1;SDS_P2;PMS_P1;PMS_P2;Temp;Humidity;BMP_temperature;BMP_pressure;BME280_temperature;BME280_humidity;BME280_pressure;Samples;Min_cycle;Max_cycle;Signal;HPM_P1;HPM_P2
2022/12/05 00:00:50;;;;;;;80.80;32.70;;;2.80;99.90;;;;;;5088014;28;20755;-72
2022/12/05 00:03:18;;;;;;;86.50;34.40;;;2.80;99.90;;;;;;5087619;28;20672;-71
2022/12/05 00:05:46;;;;;;;81.30;32.90;;;2.90;99.90;;;;;;5087925;28;20237;-71
2022/12/05 00:08:13;;;;;;;94.87;33.53;;;2.90;99.90;;;;;;5087856;28;20215;-71
2022/12/05 00:10:40;;;;;;;86.83;33.43;;;2.90;99.90;;;;;;5087154;28;20578;-72
2022/12/05 00:13:07;;;;;;;97.27;34.40;;;2.90;99.90;;;;;;5087149;28;20729;-71
2022/12/05 00:15:37;;;;;;;86.77;32.40;;;2.90;99.90;;;;;;5087674;28;20230;-71
2022/12/05 00:18:05;;;;;;;76.00;32.07;;;2.90;99.90;;;;;;5087328;28;20198;-72
2022/12/05 00:20:32;;;;;;;84.20;33.27;;;2.90;99.90;;;;;;5087675;28;20211;-71
2022/12/05 00:23:01;;;;;;;79.97;32.13;;;2.90;99.90;;;;;;5081883;28;20211;-70
2022/12/05 00:25:28;;;;;;;99.03;34.17;;;2.90;99.90;;;;;;5087126;28;20241;-70
2022/12/05 00:27:55;;;;;;;85.03;32.57;;;2.90;99.90;;;;;;5087169;28;20272;-70
2022/12/05 00:30:22;;;;;;;89.83;34.37;;;2.90;99.90;;;;;;5087479;28;20301;-70
2022/12/05 00:32:49;;;;;;;86.30;32.27;;;2.90;99.90;;;;;;5086925;28;20199;-70
2022/12/05 00:35:16;;;;;;;86.37;33.57;;;2.90;99.90;;;;;;5086318;28;20279;-70
2022/12/05 00:37:43;;;;;;;90.47;34.00;;;2.90;99.90;;;;;;5087344;28;20206;-70
2022/12/05 00:40:12;;;;;;;93.77;33.60;;;2.90;99.90;;;;;;5086641;28;20241;-70
2022/12/05 00:42:39;;;;;;;81.23;31.83;;;2.90;99.90;;;;;;5086906;28;20206;-70
2022/12/05 00:45:06;;;;;;;89.30;33.33;;;2.90;99.90;;;;;;5086736;28;20403;-70
2022/12/05 00:47:35;;;;;;;82.93;32.43;;;2.90;99.90;;;;;;5086701;28;20244;-70
2022/12/05 00:50:02;;;;;;;82.60;32.63;;;2.90;99.90;;;;;;5086795;28;20599;-70
2022/12/05 00:52:29;;;;;;;82.20;32.43;;;2.90;99.90;;;;;;5086484;28;20260;-70
2022/12/05 00:54:56;;;;;;;85.10;31.97;;;2.90;99.90;;;;;;5086810;28;20255;-70
2022/12/05 00:57:24;;;;;;;93.87;33.47;;;2.90;99.90;;;;;;5086647;28;20289;-70
2022/12/05 00:59:51;;;;;;;86.67;33.30;;;2.90;99.90;;;;;;5086202;28;20198;-69
2022/12/05 01:02:18;;;;;;;81.83;30.90;;;2.90;99.90;;;;;;5086226;28;20230;-71
2022/12/05 01:04:45;;;;;;;77.27;30.57;;;2.90;99.90;;;;;;5086618;28;20269;-72
2022/12/05 01:07:12;;;;;;;80.10;32.70;;;2.90;99.90;;;;;;5086563;28;20203;-72
2022/12/05 01:09:39;;;;;;;77.87;32.47;;;2.90;99.90;;;;;;5086637;28;20214;-72
2022/12/05 01:12:07;;;;;;;87.80;31.70;;;2.90;99.90;;;;;;5086521;28;22048;-71
2022/12/05 01:14:35;;;;;;;89.20;32.20;;;2.90;99.90;;;;;;5086378;28;20211;-71
2022/12/05 01:17:02;;;;;;;88.17;33.23;;;2.90;99.90;;;;;;5086272;28;20292;-71
2022/12/05 01:19:31;;;;;;;80.90;33.10;;;2.90;99.90;;;;;;5070717;28;20239;-71
2022/12/05 01:21:59;;;;;;;89.43;33.60;;;2.90;99.90;;;;;;5086341;28;20305;-71
2022/12/05 01:24:27;;;;;;;86.10;33.40;;;2.90;99.90;;;;;;5086606;28;20217;-71
2022/12/05 01:26:55;;;;;;;83.93;32.87;;;2.90;99.90;;;;;;5086006;28;20593;-70
2022/12/05 01:29:23;;;;;;;81.43;30.70;;;2.90;99.90;;;;;;5086479;28;20254;-71
2022/12/05 01:31:53;;;;;;;84.87;31.77;;;3.00;99.90;;;;;;5086335;28;20677;-70
2022/12/05 01:34:20;;;;;;;86.07;33.43;;;2.90;99.90;;;;;;5086145;28;20207;-71
2022/12/05 01:36:47;;;;;;;83.67;33.60;;;2.90;99.90;;;;;;5086669;28;20234;-71
2022/12/05 01:39:15;;;;;;;87.57;32.60;;;3.00;99.90;;;;;;5085966;28;20278;-71
2022/12/05 01:41:44;;;;;;;87.90;33.57;;;3.00;99.90;;;;;;5086464;28;20211;-71
2022/12/05 01:44:44;;;;;;;81.37;32.43;;;2.90;99.90;;;;;;5086105;28;21002;-71
2022/12/05 01:47:15;;;;;;;81.50;32.63;;;3.00;99.90;;;;;;5086195;28;20636;-73
2022/12/05 01:49:43;;;;;;;81.17;33.23;;;3.00;99.90;;;;;;5086560;28;20263;-72
2022/12/05 01:52:15;;;;;;;93.30;32.40;;;3.00;99.90;;;;;;5086327;28;20317;-72
2022/12/05 01:54:43;;;;;;;88.97;33.17;;;3.00;99.90;;;;;;5086184;28;20662;-72
2022/12/05 01:57:13;;;;;;;90.90;33.87;;;3.00;99.90;;;;;;5086505;28;20306;-72
2022/12/05 01:59:45;;;;;;;87.87;34.67;;;3.00;99.90;;;;;;5086555;28;20252;-72
2022/12/05 02:02:13;;;;;;;90.90;33.13;;;3.00;99.90;;;;;;5086198;28;20750;-72
2022/12/05 02:04:45;;;;;;;85.37;33.67;;;3.00;99.90;;;;;;5086374;28;20563;-71
2022/12/05 02:07:12;;;;;;;87.87;32.77;;;3.00;99.90;;;;;;5086397;28;20314;-71
2022/12/05 02:09:39;;;;;;;83.40;33.40;;;3.00;99.90;;;;;;5087425;28;20207;-71
2022/12/05 02:12:06;;;;;;;79.93;32.63;;;3.00;99.90;;;;;;5089467;28;20199;-71
2022/12/05 02:14:43;;;;;;;87.87;34.53;;;3.00;99.90;;;;;;5083645;28;20698;-71
2022/12/05 02:17:21;;;;;;;82.40;32.90;;;3.00;99.90;;;;;;5069449;28;20195;-71
2022/12/05 02:20:01;;;;;;;98.50;34.97;;;3.00;99.90;;;;;;5073593;28;20207;-71
2022/12/05 02:23:04;;;;;;;84.27;32.70;;;3.00;99.90;;;;;;5089266;28;20195;-70
2022/12/05 02:25:53;;;;;;;86.37;33.07;;;3.00;99.90;;;;;;5066524;28;20261;-70
2022/12/05 02:28:48;;;;;;;93.00;34.10;;;3.00;99.90;;;;;;5069079;28;21024;-70
2022/12/05 02:31:22;;;;;;;77.67;31.40;;;3.00;99.90;;;;;;5069114;28;20207;-71
2022/12/05 02:33:53;;;;;;;84.03;32.60;;;3.10;99.90;;;;;;5069596;28;20255;-71
2022/12/05 02:36:25;;;;;;;80.43;32.67;;;3.00;99.90;;;;;;5069603;28;20264;-71
2022/12/05 02:38:59;;;;;;;84.47;32.27;;;3.10;99.90;;;;;;5085092;28;20328;-71
2022/12/05 02:41:32;;;;;;;85.57;33.10;;;3.10;99.90;;;;;;5089088;28;20226;-72
2022/12/05 02:44:04;;;;;;;92.93;33.13;;;3.10;99.90;;;;;;5088921;28;20645;-72
2022/12/05 02:46:37;;;;;;;75.03;30.90;;;3.10;99.90;;;;;;5088898;28;20211;-72
2022/12/05 02:49:08;;;;;;;88.03;32.37;;;3.10;99.90;;;;;;5088719;28;20191;-71
2022/12/05 02:51:39;;;;;;;83.93;31.83;;;3.10;99.90;;;;;;5088798;28;20745;-70
2022/12/05 02:54:12;;;;;;;80.20;31.27;;;3.10;99.90;;;;;;5088311;28;20190;-71
2022/12/05 02:56:42;;;;;;;86.83;32.57;;;3.10;99.90;;;;;;5089030;28;20191;-71
2022/12/05 02:59:09;;;;;;;76.40;30.30;;;3.10;99.90;;;;;;5088496;28;20268;-70
2022/12/05 03:01:37;;;;;;;77.33;31.00;;;3.10;99.90;;;;;;5088441;28;20314;-70
2022/12/05 03:04:08;;;;;;;83.07;30.47;;;3.10;99.90;;;;;;5088413;28;20211;-70
2022/12/05 03:06:38;;;;;;;84.87;31.93;;;3.10;99.90;;;;;;5088644;28;20223;-71
2022/12/05 03:09:09;;;;;;;78.50;30.67;;;3.10;99.90;;;;;;5088431;28;20195;-70
2022/12/05 03:11:40;;;;;;;78.77;31.10;;;3.10;99.90;;;;;;5080744;28;20207;-71
2022/12/05 03:14:13;;;;;;;75.30;29.90;;;3.10;99.90;;;;;;5088486;28;20234;-70
2022/12/05 03:16:46;;;;;;;69.37;29.03;;;3.10;99.90;;;;;;5088681;28;20197;-70
2022/12/05 03:19:18;;;;;;;71.20;30.77;;;3.10;99.90;;;;;;5088461;28;20199;-71
2022/12/05 03:21:50;;;;;;;70.17;27.93;;;3.10;99.90;;;;;;5088131;28;20756;-71
2022/12/05 03:24:17;;;;;;;66.83;29.70;;;3.10;99.90;;;;;;5069538;28;20214;-71
2022/12/05 03:26:53;;;;;;;63.87;28.13;;;3.10;99.90;;;;;;5082169;28;20234;-71
2022/12/05 03:29:26;;;;;;;61.53;27.17;;;3.10;99.90;;;;;;5086519;28;20226;-71
2022/12/05 03:32:08;;;;;;;65.13;28.20;;;3.10;99.90;;;;;;5086580;28;20661;-70
2022/12/05 03:34:48;;;;;;;60.93;26.67;;;3.10;99.90;;;;;;5086166;28;20202;-71
2022/12/05 03:37:21;;;;;;;55.43;25.43;;;3.10;99.90;;;;;;5083243;28;20699;-71
2022/12/05 03:39:54;;;;;;;56.40;26.37;;;3.10;99.90;;;;;;5086144;28;20341;-71
2022/12/05 03:42:28;;;;;;;67.60;26.63;;;3.20;99.90;;;;;;5086246;28;21028;-71
2022/12/05 03:45:00;;;;;;;54.13;23.93;;;3.10;99.90;;;;;;5087102;28;20210;-71
2022/12/05 03:47:35;;;;;;;59.13;25.97;;;3.10;99.90;;;;;;5087044;28;20253;-71
2022/12/05 03:50:10;;;;;;;51.97;25.00;;;3.10;99.90;;;;;;5086634;28;20558;-71
2022/12/05 03:52:42;;;;;;;52.83;24.33;;;3.10;99.90;;;;;;5086322;28;20603;-71
2022/12/05 03:55:13;;;;;;;55.60;23.57;;;3.10;99.90;;;;;;5086605;28;20252;-71
2022/12/05 03:57:44;;;;;;;55.33;25.03;;;3.10;99.90;;;;;;5086501;28;20309;-71
2022/12/05 04:00:17;;;;;;;48.67;23.77;;;3.10;99.90;;;;;;5086323;28;20195;-71
2022/12/05 04:02:51;;;;;;;53.30;24.50;;;3.20;99.90;;;;;;5086624;28;20234;-71
2022/12/05 04:05:22;;;;;;;46.80;24.67;;;3.20;99.90;;;;;;5087388;28;20279;-71
2022/12/05 04:07:55;;;;;;;51.43;23.03;;;3.10;99.90;;;;;;5087393;28;20287;-71
2022/12/05 04:10:28;;;;;;;53.50;23.93;;;3.10;99.90;;;;;;5087642;28;20209;-71
2022/12/05 04:12:58;;;;;;;47.57;22.63;;;3.20;99.90;;;;;;5087514;28;20199;-71
2022/12/05 04:17:01;;;;;;;44.03;22.83;;;3.20;99.90;;;;;;5087049;28;20679;-71
2022/12/05 04:18:19;;;;;;;57.43;24.80;;;3.20;99.90;;;;;;5087156;28;20195;-71
2022/12/05 04:23:33;;;;;;;49.80;22.27;;;3.10;99.90;;;;;;5087535;28;20232;-71
2022/12/05 04:26:05;;;;;;;47.53;23.23;;;3.20;99.90;;;;;;5087162;28;20229;-71
2022/12/05 04:28:38;;;;;;;54.40;23.50;;;3.20;99.90;;;;;;5086957;28;20256;-71
2022/12/05 04:31:10;;;;;;;48.67;23.53;;;3.20;99.90;;;;;;5087042;28;20414;-71
2022/12/05 04:33:43;;;;;;;51.43;24.30;;;3.20;99.90;;;;;;5086841;28;20244;-72
2022/12/05 04:36:15;;;;;;;50.07;23.87;;;3.20;99.90;;;;;;5087009;28;20199;-71
2022/12/05 04:38:46;;;;;;;48.53;23.17;;;3.20;99.90;;;;;;5066802;28;20199;-71
2022/12/05 04:41:17;;;;;;;46.60;23.97;;;3.20;99.90;;;;;;5066573;28;20294;-71
2022/12/05 04:43:47;;;;;;;46.67;23.87;;;3.20;99.90;;;;;;5066730;28;20621;-71
2022/12/05 04:46:16;;;;;;;52.10;24.27;;;3.20;99.90;;;;;;5066629;28;20783;-71
2022/12/05 04:48:50;;;;;;;50.23;24.30;;;3.20;99.90;;;;;;5082946;28;20198;-71
2022/12/05 04:51:21;;;;;;;54.00;24.57;;;3.20;99.90;;;;;;5086722;28;20219;-72
2022/12/05 04:53:53;;;;;;;51.20;23.73;;;3.20;99.90;;;;;;5086654;28;20290;-71
2022/12/05 04:56:22;;;;;;;47.93;23.93;;;3.20;99.90;;;;;;5086945;28;20191;-71
2022/12/05 04:58:49;;;;;;;55.20;24.33;;;3.20;99.90;;;;;;5086621;28;20238;-71
2022/12/05 05:01:21;;;;;;;48.37;23.67;;;3.20;99.90;;;;;;5086663;28;20566;-72
2022/12/05 05:03:54;;;;;;;47.60;22.60;;;3.20;99.90;;;;;;5074855;28;20724;-71
2022/12/05 05:06:21;;;;;;;47.87;23.10;;;3.20;99.90;;;;;;5066766;28;20265;-71
2022/12/05 05:08:50;;;;;;;50.27;24.17;;;3.20;99.90;;;;;;5066486;28;20683;-71
2022/12/05 05:11:20;;;;;;;44.97;23.03;;;3.20;99.90;;;;;;5066085;28;20212;-71
2022/12/05 05:13:47;;;;;;;41.37;23.03;;;3.20;99.90;;;;;;5066288;28;20298;-71
2022/12/05 05:16:18;;;;;;;49.40;23.30;;;3.20;99.90;;;;;;5066450;28;20265;-71
2022/12/05 05:18:45;;;;;;;43.77;22.10;;;3.20;99.90;;;;;;5066556;28;20569;-71
2022/12/05 05:21:20;;;;;;;42.93;21.70;;;3.30;99.90;;;;;;5073276;28;20267;-71
2022/12/05 05:23:47;;;;;;;42.90;21.93;;;3.30;99.90;;;;;;5086337;28;20652;-71
2022/12/05 05:26:14;;;;;;;44.10;21.00;;;3.30;99.90;;;;;;5086037;28;20353;-71
2022/12/05 05:28:42;;;;;;;46.07;22.37;;;3.30;99.90;;;;;;5086140;28;20230;-71
2022/12/05 05:31:09;;;;;;;39.30;20.87;;;3.30;99.90;;;;;;5086143;28;20203;-71
2022/12/05 05:33:36;;;;;;;35.40;20.30;;;3.30;99.90;;;;;;5086071;28;20210;-71
2022/12/05 05:36:05;;;;;;;40.90;20.77;;;3.30;99.90;;;;;;5086464;28;20217;-71
2022/12/05 05:38:35;;;;;;;40.67;20.67;;;3.30;99.90;;;;;;5086257;28;20624;-71
2022/12/05 05:41:02;;;;;;;39.63;21.07;;;3.30;99.90;;;;;;5085760;28;20203;-71
2022/12/05 05:43:29;;;;;;;37.73;20.77;;;3.30;99.90;;;;;;5077115;28;20615;-71
2022/12/05 05:45:56;;;;;;;40.23;20.50;;;3.30;99.90;;;;;;5068647;28;20204;-71
2022/12/05 05:48:23;;;;;;;35.30;20.00;;;3.30;99.90;;;;;;5083857;28;20282;-71
2022/12/05 05:50:50;;;;;;;37.70;19.77;;;3.30;99.90;;;;;;5090137;28;20655;-72
2022/12/05 05:53:17;;;;;;;34.30;19.83;;;3.30;99.90;;;;;;5090020;28;20291;-71
2022/12/05 05:55:46;;;;;;;35.53;19.03;;;3.30;99.90;;;;;;5089754;28;20589;-71
2022/12/05 05:58:13;;;;;;;33.80;19.17;;;3.30;99.90;;;;;;5090212;28;20236;-71
2022/12/05 06:00:40;;;;;;;34.20;18.30;;;3.30;99.90;;;;;;5089762;28;20214;-71
2022/12/05 06:03:07;;;;;;;32.37;18.87;;;3.30;99.90;;;;;;5089695;28;20245;-71
2022/12/05 06:05:34;;;;;;;32.47;18.80;;;3.30;99.90;;;;;;5090214;28;20238;-71
2022/12/05 06:08:00;;;;;;;33.57;18.20;;;3.30;99.90;;;;;;5090182;28;20327;-71
2022/12/05 06:10:28;;;;;;;35.13;17.67;;;3.30;99.90;;;;;;5089970;28;20242;-72
2022/12/05 06:12:57;;;;;;;31.83;17.10;;;3.30;99.90;;;;;;5089853;28;20206;-71
2022/12/05 06:15:24;;;;;;;27.90;17.23;;;3.30;99.90;;;;;;5089833;28;20293;-71
2022/12/05 06:17:51;;;;;;;29.77;16.37;;;3.30;99.90;;;;;;5089718;28;20211;-71
2022/12/05 06:20:18;;;;;;;29.03;17.23;;;3.30;99.90;;;;;;5090213;28;20584;-71
2022/12/05 06:22:45;;;;;;;28.63;15.70;;;3.30;99.90;;;;;;5089730;28;20207;-71
2022/12/05 06:25:12;;;;;;;24.87;15.40;;;3.30;99.90;;;;;;5089355;28;20292;-71
2022/12/05 06:27:39;;;;;;;27.20;15.70;;;3.30;99.90;;;;;;5089859;28;20238;-71
2022/12/05 06:30:09;;;;;;;30.23;15.90;;;3.30;99.90;;;;;;5088979;28;20672;-71
2022/12/05 06:32:36;;;;;;;25.77;15.83;;;3.30;99.90;;;;;;5089863;28;20242;-71
2022/12/05 06:35:09;;;;;;;22.50;14.97;;;3.30;99.90;;;;;;5089389;28;20206;-72
2022/12/05 06:37:37;;;;;;;23.60;14.43;;;3.30;99.90;;;;;;5089689;28;20199;-71
2022/12/05 06:40:05;;;;;;;24.73;15.07;;;3.30;99.90;;;;;;5088775;28;20234;-72
2022/12/05 06:42:32;;;;;;;25.17;14.93;;;3.30;99.90;;;;;;5089238;28;20750;-71
2022/12/05 06:44:59;;;;;;;22.03;13.50;;;3.40;99.90;;;;;;5078905;28;20250;-71
2022/12/05 06:47:28;;;;;;;19.90;12.97;;;3.30;99.90;;;;;;5068676;28;20315;-71
2022/12/05 06:49:55;;;;;;;23.23;13.60;;;3.40;99.90;;;;;;5073572;28;20207;-71
2022/12/05 06:52:22;;;;;;;21.50;13.83;;;3.40;99.90;;;;;;5089508;28;20234;-71
2022/12/05 06:54:49;;;;;;;26.00;13.93;;;3.30;99.90;;;;;;5088763;28;20202;-71
2022/12/05 06:57:16;;;;;;;20.67;13.17;;;3.40;99.90;;;;;;5088884;28;20246;-71
2022/12/05 06:59:43;;;;;;;18.73;13.17;;;3.40;99.90;;;;;;5089018;28;20315;-71
2022/12/05 07:02:11;;;;;;;21.37;13.53;;;3.40;99.90;;;;;;5088750;28;20227;-71
2022/12/05 07:04:40;;;;;;;18.27;12.37;;;3.40;99.90;;;;;;5088841;28;20206;-71
2022/12/05 07:07:07;;;;;;;19.37;12.87;;;3.40;99.90;;;;;;5088689;28;20227;-71
2022/12/05 07:09:47;;;;;;;21.07;13.93;;;3.40;99.90;;;;;;5088650;28;20218;-71
2022/12/05 07:12:15;;;;;;;20.50;13.60;;;3.40;99.90;;;;;;5088341;28;20736;-71
2022/12/05 07:14:42;;;;;;;21.40;13.23;;;3.40;99.90;;;;;;5088872;28;20202;-71
2022/12/05 07:17:10;;;;;;;23.03;12.93;;;3.40;99.90;;;;;;5088353;28;20618;-71
2022/12/05 07:19:39;;;;;;;20.77;13.53;;;3.40;99.90;;;;;;5086149;28;20215;-71
2022/12/05 07:22:06;;;;;;;20.37;13.40;;;3.40;99.90;;;;;;5082841;28;20202;-71
2022/12/05 07:24:35;;;;;;;20.20;13.27;;;3.40;99.90;;;;;;5088011;28;20252;-71
2022/12/05 07:27:02;;;;;;;18.50;12.90;;;3.40;99.90;;;;;;5087964;28;20731;-71
2022/12/05 07:29:29;;;;;;;20.87;13.17;;;3.40;99.90;;;;;;5088200;28;20210;-71
2022/12/05 07:31:56;;;;;;;20.80;13.23;;;3.40;99.90;;;;;;5088302;28;20313;-71
2022/12/05 07:34:23;;;;;;;19.40;13.20;;;3.40;99.90;;;;;;5087815;28;20207;-71
2022/12/05 07:36:51;;;;;;;19.60;12.33;;;3.40;99.90;;;;;;5088062;28;20297;-71
2022/12/05 07:39:18;;;;;;;20.90;12.80;;;3.40;99.90;;;;;;5088000;28;20234;-71
2022/12/05 07:41:45;;;;;;;19.90;12.30;;;3.50;99.90;;;;;;5088063;28;20286;-71
2022/12/05 07:44:13;;;;;;;19.40;12.93;;;3.50;99.90;;;;;;5087795;28;20333;-71
2022/12/05 07:46:40;;;;;;;19.43;13.20;;;3.60;99.90;;;;;;5087728;28;20733;-71
2022/12/05 07:49:07;;;;;;;17.57;12.60;;;3.50;99.90;;;;;;5067537;28;20644;-71
2022/12/05 07:51:35;;;;;;;20.93;13.10;;;3.50;99.90;;;;;;5082848;28;20613;-71
2022/12/05 07:54:03;;;;;;;20.50;14.40;;;3.50;99.90;;;;;;5067579;28;20547;-71
2022/12/05 07:56:30;;;;;;;19.37;12.80;;;3.50;99.90;;;;;;5067520;28;20294;-71
2022/12/05 07:58:57;;;;;;;18.47;12.63;;;3.50;99.90;;;;;;5067674;28;20206;-71
2022/12/05 08:01:26;;;;;;;22.57;13.70;;;3.50;99.90;;;;;;5067419;28;20235;-71
2022/12/05 08:03:54;;;;;;;22.23;14.13;;;3.50;99.90;;;;;;5067429;28;20286;-71
2022/12/05 08:06:23;;;;;;;18.70;12.93;;;3.50;99.90;;;;;;5067636;28;20211;-71
2022/12/05 08:08:50;;;;;;;20.63;12.90;;;3.50;99.90;;;;;;5067351;28;20299;-71
2022/12/05 08:11:21;;;;;;;22.57;13.70;;;3.50;99.90;;;;;;5066984;28;20682;-71
2022/12/05 08:13:48;;;;;;;20.87;14.03;;;3.50;99.90;;;;;;5067332;28;20562;-71
2022/12/05 08:16:17;;;;;;;21.90;13.97;;;3.50;99.90;;;;;;5070293;28;20297;-71
2022/12/05 08:18:45;;;;;;;20.13;13.80;;;3.40;99.90;;;;;;5087717;28;20238;-71
2022/12/05 08:21:13;;;;;;;21.23;14.10;;;3.50;99.90;;;;;;5087210;28;20230;-71
2022/12/05 08:23:42;;;;;;;22.07;13.73;;;3.50;99.90;;;;;;5067236;28;20326;-72
2022/12/05 08:26:11;;;;;;;21.10;12.93;;;3.40;99.90;;;;;;5066384;28;20658;-71
2022/12/05 08:28:40;;;;;;;22.47;13.70;;;3.40;99.90;;;;;;5066807;28;20315;-72
2022/12/05 08:31:09;;;;;;;20.37;12.57;;;3.40;99.90;;;;;;5066781;28;20290;-71
2022/12/05 08:33:36;;;;;;;22.17;13.57;;;3.50;99.90;;;;;;5067054;28;20339;-71
2022/12/05 08:36:05;;;;;;;16.93;12.77;;;3.50;99.90;;;;;;5067014;28;20301;-71
2022/12/05 08:38:32;;;;;;;19.07;12.37;;;3.50;99.90;;;;;;5085677;28;20214;-71
2022/12/05 08:41:00;;;;;;;18.50;12.20;;;3.50;99.90;;;;;;5086839;28;20199;-71
2022/12/05 08:43:28;;;;;;;20.73;13.10;;;3.50;99.90;;;;;;5086759;28;20203;-71
2022/12/05 08:45:56;;;;;;;19.60;13.13;;;3.50;99.90;;;;;;5086762;28;20257;-72
2022/12/05 08:48:24;;;;;;;16.70;11.90;;;3.50;99.90;;;;;;5072565;28;20714;-71
2022/12/05 08:50:51;;;;;;;19.07;12.30;;;3.50;99.90;;;;;;5079287;28;20294;-71
2022/12/05 08:53:18;;;;;;;17.93;12.13;;;3.50;99.90;;;;;;5086925;28;20245;-71
2022/12/05 08:55:45;;;;;;;17.30;12.40;;;3.50;99.90;;;;;;5086336;28;20290;-71
2022/12/05 08:58:12;;;;;;;16.57;11.90;;;3.50;99.90;;;;;;5086911;28;20207;-71
2022/12/05 09:00:40;;;;;;;19.67;11.93;;;3.50;99.90;;;;;;5086468;28;20504;-71
2022/12/05 09:03:12;;;;;;;17.50;11.67;;;3.50;99.90;;;;;;5086449;28;20245;-71
2022/12/05 09:05:39;;;;;;;17.67;12.13;;;3.50;99.90;;;;;;5087133;28;20289;-71
2022/12/05 09:08:06;;;;;;;18.47;12.73;;;3.50;99.90;;;;;;5086728;28;20230;-71
2022/12/05 09:10:33;;;;;;;17.10;12.57;;;3.60;99.90;;;;;;5086503;28;20210;-71
2022/12/05 09:13:00;;;;;;;18.60;11.73;;;3.60;99.90;;;;;;5086467;28;20207;-71
2022/12/05 09:15:27;;;;;;;20.87;12.63;;;3.60;99.90;;;;;;5086505;28;20305;-71
2022/12/05 09:17:54;;;;;;;18.77;12.77;;;3.50;99.90;;;;;;5086407;28;20213;-71
2022/12/05 09:20:22;;;;;;;19.97;12.57;;;3.60;99.90;;;;;;5090960;28;20260;-72
2022/12/05 09:22:49;;;;;;;19.07;13.27;;;3.60;99.90;;;;;;5091315;28;20248;-72
2022/12/05 09:25:16;;;;;;;18.27;12.87;;;3.60;99.90;;;;;;5090526;28;20260;-71
2022/12/05 09:27:43;;;;;;;18.70;12.53;;;3.60;99.90;;;;;;5090960;28;20320;-71
2022/12/05 09:30:10;;;;;;;18.30;12.70;;;3.60;99.90;;;;;;5090761;28;20302;-71
2022/12/05 09:32:37;;;;;;;16.40;12.70;;;3.60;99.90;;;;;;5090651;28;20298;-71
2022/12/05 09:35:04;;;;;;;18.97;12.87;;;3.60;99.90;;;;;;5090567;28;20325;-71
2022/12/05 09:37:33;;;;;;;21.60;13.27;;;3.60;99.90;;;;;;5090827;28;20246;-71
2022/12/05 09:40:00;;;;;;;17.53;12.73;;;3.60;99.90;;;;;;5090114;28;20534;-71
2022/12/05 09:42:40;;;;;;;20.53;12.40;;;3.60;99.90;;;;;;5090329;28;20633;-71
2022/12/05 09:45:21;;;;;;;21.33;13.50;;;3.60;99.90;;;;;;5090247;28;20685;-71
2022/12/05 09:47:57;;;;;;;17.57;12.20;;;3.60;99.90;;;;;;5081074;28;20749;-71
2022/12/05 09:50:27;;;;;;;17.67;12.87;;;3.70;99.90;;;;;;5078625;28;20230;-71
2022/12/05 09:53:05;;;;;;;21.63;13.00;;;3.60;99.90;;;;;;5089688;28;20664;-71
2022/12/05 09:55:41;;;;;;;19.67;13.10;;;3.60;99.90;;;;;;5090020;28;20190;-72
2022/12/05 09:58:22;;;;;;;21.10;13.23;;;3.60;99.90;;;;;;5090392;28;20213;-71
2022/12/05 10:00:51;;;;;;;17.97;12.53;;;3.60;99.90;;;;;;5089933;28;20219;-71
2022/12/05 10:03:29;;;;;;;17.93;12.23;;;3.60;99.90;;;;;;5089853;28;20763;-71
2022/12/05 10:06:07;;;;;;;18.27;12.27;;;3.70;99.90;;;;;;5090170;28;20492;-71
2022/12/05 10:08:45;;;;;;;19.73;12.87;;;3.60;99.90;;;;;;5090037;28;20218;-71
2022/12/05 10:11:18;;;;;;;21.23;13.73;;;3.60;99.90;;;;;;5089871;28;20260;-71
2022/12/05 10:13:53;;;;;;;21.73;13.10;;;3.70;99.90;;;;;;5089560;28;20613;-71
2022/12/05 10:16:28;;;;;;;21.30;13.50;;;3.60;99.90;;;;;;5090370;28;20219;-71
2022/12/05 10:19:00;;;;;;;20.27;13.47;;;3.70;99.90;;;;;;5090075;28;20290;-71
2022/12/05 10:21:33;;;;;;;23.83;13.63;;;3.70;99.90;;;;;;5089763;28;20717;-71
2022/12/05 10:24:04;;;;;;;18.63;13.83;;;3.70;99.90;;;;;;5089966;28;20277;-71
2022/12/05 10:26:34;;;;;;;20.87;13.97;;;3.70;99.90;;;;;;5090118;28;20229;-71
2022/12/05 10:29:11;;;;;;;19.83;13.33;;;3.70;99.90;;;;;;5089730;28;20333;-72
2022/12/05 10:31:40;;;;;;;21.80;13.83;;;3.70;99.90;;;;;;5089335;28;20314;-71
2022/12/05 10:34:16;;;;;;;23.80;14.13;;;3.70;99.90;;;;;;5089579;28;20242;-71
2022/12/05 10:36:51;;;;;;;23.37;14.63;;;3.70;99.90;;;;;;5089858;28;20286;-71
2022/12/05 10:39:19;;;;;;;20.43;13.77;;;3.70;99.90;;;;;;5089156;28;20715;-72
2022/12/05 10:41:46;;;;;;;21.50;13.90;;;3.70;99.90;;;;;;5074053;28;20208;-72
2022/12/05 10:44:14;;;;;;;23.13;14.93;;;3.70;99.90;;;;;;5069156;28;20245;-71
2022/12/05 10:46:40;;;;;;;21.27;14.53;;;3.70;99.90;;;;;;5069253;28;20210;-71
2022/12/05 10:49:11;;;;;;;19.93;14.53;;;3.70;99.90;;;;;;5088412;28;20317;-71
2022/12/05 10:51:38;;;;;;;22.13;15.10;;;3.70;99.90;;;;;;5089193;28;20222;-71
2022/12/05 10:54:16;;;;;;;20.33;14.00;;;3.70;99.90;;;;;;5088673;28;20299;-71
2022/12/05 10:56:46;;;;;;;23.10;14.93;;;3.70;99.90;;;;;;5089348;28;20961;-71
2022/12/05 10:59:15;;;;;;;20.53;14.70;;;3.70;99.90;;;;;;5088841;28;20330;-71
2022/12/05 11:01:47;;;;;;;25.80;15.07;;;3.80;99.90;;;;;;5088971;28;20270;-72
2022/12/05 11:04:26;;;;;;;25.17;15.07;;;3.80;99.90;;;;;;5088657;28;20589;-71
2022/12/05 11:06:59;;;;;;;24.20;14.97;;;3.80;99.90;;;;;;5088732;28;20301;-71
2022/12/05 11:09:28;;;;;;;24.40;15.00;;;3.80;99.90;;;;;;5088719;28;20333;-71
2022/12/05 11:12:06;;;;;;;23.13;13.93;;;3.80;99.90;;;;;;5068304;28;20302;-71
2022/12/05 11:14:35;;;;;;;21.23;14.83;;;3.80;99.90;;;;;;5068230;28;20231;-71
2022/12/05 11:17:04;;;;;;;29.10;15.10;;;3.80;99.90;;;;;;5068559;28;20231;-71
2022/12/05 11:19:33;;;;;;;25.47;15.33;;;3.80;99.90;;;;;;5069974;28;20211;-71
2022/12/05 11:22:01;;;;;;;23.93;15.20;;;3.80;99.90;;;;;;5088781;28;20290;-72
2022/12/05 11:24:30;;;;;;;24.27;15.87;;;3.80;99.90;;;;;;5088551;28;20243;-71
2022/12/05 11:26:58;;;;;;;24.23;15.07;;;3.80;99.90;;;;;;5088097;28;20242;-71
2022/12/05 11:29:33;;;;;;;24.00;14.77;;;3.80;99.90;;;;;;5088274;28;20773;-71
2022/12/05 11:32:00;;;;;;;21.17;14.70;;;3.80;99.90;;;;;;5088186;28;20560;-71
2022/12/05 11:34:32;;;;;;;26.40;15.97;;;3.80;99.90;;;;;;5088941;28;20564;-71
2022/12/05 11:37:04;;;;;;;26.30;15.63;;;3.80;99.90;;;;;;5088529;28;20191;-71
2022/12/05 11:39:32;;;;;;;25.97;16.17;;;3.80;99.90;;;;;;5087884;28;20283;-71
2022/12/05 11:42:20;;;;;;;27.63;16.03;;;3.80;99.90;;;;;;5087325;28;20229;-71
2022/12/05 11:45:20;;;;;;;28.13;17.40;;;3.80;99.90;;;;;;5088324;28;20278;-71
2022/12/05 11:48:10;;;;;;;27.77;16.00;;;3.80;99.90;;;;;;5074535;28;20314;-71
2022/12/05 11:50:50;;;;;;;25.77;15.70;;;3.80;99.90;;;;;;5078563;28;20306;-73
2022/12/05 11:53:40;;;;;;;24.83;14.67;;;3.80;99.90;;;;;;5088180;28;20562;-70
2022/12/05 11:56:17;;;;;;;25.77;14.43;;;3.80;99.90;;;;;;5088025;28;20289;-70
2022/12/05 11:58:59;;;;;;;25.63;15.10;;;3.80;99.90;;;;;;5088073;28;20278;-71
2022/12/05 12:01:36;;;;;;;24.07;14.47;;;3.80;99.90;;;;;;5087789;28;20241;-71
2022/12/05 12:04:38;;;;;;;25.17;15.13;;;3.80;99.90;;;;;;5087669;28;20238;-71
2022/12/05 12:07:24;;;;;;;23.67;14.63;;;3.80;99.90;;;;;;5083901;28;20218;-71
2022/12/05 12:09:59;;;;;;;21.97;14.43;;;3.90;99.90;;;;;;5087788;28;20219;-71
2022/12/05 12:12:34;;;;;;;24.33;15.10;;;3.90;99.90;;;;;;5088074;28;20540;-71
2022/12/05 12:15:17;;;;;;;26.50;15.30;;;3.90;99.90;;;;;;5087413;28;20191;-71
2022/12/05 12:17:51;;;;;;;23.50;15.50;;;3.90;99.90;;;;;;5087920;28;20322;-71
2022/12/05 12:20:43;;;;;;;22.37;13.97;;;3.90;99.90;;;;;;5088130;28;20210;-71
2022/12/05 12:23:32;;;;;;;23.27;14.33;;;3.90;99.90;;;;;;5087806;28;20290;-71
2022/12/05 12:26:09;;;;;;;22.23;14.43;;;3.90;99.90;;;;;;5087765;28;20286;-71
2022/12/05 12:28:44;;;;;;;23.53;15.20;;;3.90;99.90;;;;;;5087636;28;20333;-71
2022/12/05 12:31:34;;;;;;;22.07;14.87;;;3.90;99.90;;;;;;5086949;28;20832;-71
2022/12/05 12:34:14;;;;;;;18.40;13.63;;;3.90;99.90;;;;;;5087303;28;20293;-71
2022/12/05 12:36:48;;;;;;;22.30;14.10;;;3.90;99.90;;;;;;5087363;28;20672;-71
2022/12/05 12:39:27;;;;;;;25.07;15.00;;;3.90;99.90;;;;;;5086857;28;20234;-71
2022/12/05 12:42:18;;;;;;;22.10;14.80;;;3.90;99.90;;;;;;5086976;28;20194;-71
2022/12/05 12:45:03;;;;;;;23.63;14.37;;;3.90;99.90;;;;;;5087329;28;20195;-71
2022/12/05 12:47:43;;;;;;;27.67;16.17;;;3.90;99.90;;;;;;5080739;28;20202;-71
2022/12/05 12:50:16;;;;;;;25.83;16.03;;;3.90;99.90;;;;;;5073662;28;20293;-71
2022/12/05 12:53:03;;;;;;;27.03;14.87;;;3.90;99.90;;;;;;5087197;28;20191;-71
2022/12/05 12:55:41;;;;;;;27.07;16.03;;;3.90;99.90;;;;;;5086734;28;20197;-71
2022/12/05 12:58:21;;;;;;;28.17;16.17;;;3.90;99.90;;;;;;5087128;28;20198;-71